sensor_id;sensor_type;location;lat;lon;timestamp;P1;durP1;ratioP1;P2;durP2;ratioP2
16288;SDS011;26089;43.538;5.250;2023-05-07T00:00:48;2.97;;;2.33;;
16288;SDS011;26089;43.538;5.250;2023-05-07T00:03:16;2.67;;;2.47;;
16288;SDS011;26089;43.538;5.250;2023-05-07T00:05:45;3.20;;;2.80;;
16288;SDS011;26089;43.538;5.250;2023-05-07T00:08:13;3.17;;;2.50;;
16288;SDS011;26089;43.538;5.250;2023-05-07T00:10:40;2.83;;;2.53;;
16288;SDS011;26089;43.538;5.250;2023-05-07T00:13:07;3.40;;;2.97;;
16288;SDS011;26089;43.538;5.250;2023-05-07T00:15:34;3.50;;;2.43;;
16288;SDS011;26089;43.538;5.250;2023-05-07T00:18:01;3.60;;;2.57;;
16288;SDS011;26089;43.538;5.250;2023-05-07T00:20:28;3.03;;;2.57;;
16288;SDS011;26089;43.538;5.250;2023-05-07T00:22:56;2.87;;;2.57;;
16288;SDS011;26089;43.538;5.250;2023-05-07T00:25:23;3.47;;;2.73;;
16288;SDS011;26089;43.538;5.250;2023-05-07T00:27:50;3.93;;;2.93;;
16288;SDS011;26089;43.538;5.250;2023-05-07T00:30:17;3.00;;;2.70;;
16288;SDS011;26089;43.538;5.250;2023-05-07T00:32:45;4.30;;;2.70;;
16288;SDS011;26089;43.538;5.250;2023-05-07T00:35:14;3.50;;;2.57;;
16288;SDS011;26089;43.538;5.250;2023-05-07T00:37:40;3.50;;;3.00;;
16288;SDS011;26089;43.538;5.250;2023-05-07T00:40:09;2.40;;;2.20;;
16288;SDS011;26089;43.538;5.250;2023-05-07T00:42:36;2.80;;;2.60;;
16288;SDS011;26089;43.538;5.250;2023-05-07T00:45:04;3.97;;;2.37;;
16288;SDS011;26089;43.538;5.250;2023-05-07T00:47:32;2.60;;;2.40;;
16288;SDS011;26089;43.538;5.250;2023-05-07T00:49:59;3.90;;;3.27;;
16288;SDS011;26089;43.538;5.250;2023-05-07T00:52:26;3.10;;;2.90;;
16288;SDS011;26089;43.538;5.250;2023-05-07T00:54:54;4.00;;;2.90;;
16288;SDS011;26089;43.538;5.250;2023-05-07T00:57:23;3.27;;;2.87;;
16288;SDS011;26089;43.538;5.250;2023-05-07T00:59:51;4.90;;;2.60;;
16288;SDS011;26089;43.538;5.250;2023-05-07T01:02:18;2.87;;;2.67;;
16288;SDS011;26089;43.538;5.250;2023-05-07T01:04:45;3.77;;;2.80;;
16288;SDS011;26089;43.538;5.250;2023-05-07T01:07:12;3.73;;;2.43;;
16288;SDS011;26089;43.538;5.250;2023-05-07T01:09:39;4.13;;;3.30;;
16288;SDS011;26089;43.538;5.250;2023-05-07T01:12:07;3.43;;;2.40;;
16288;SDS011;26089;43.538;5.250;2023-05-07T01:14:36;2.97;;;2.77;;
16288;SDS011;26089;43.538;5.250;2023-05-07T01:17:03;3.23;;;2.93;;
16288;SDS011;26089;43.538;5.250;2023-05-07T01:19:30;4.50;;;2.57;;
16288;SDS011;26089;43.538;5.250;2023-05-07T01:22:00;3.00;;;2.60;;
16288;SDS011;26089;43.538;5.250;2023-05-07T01:24:31;3.43;;;3.10;;
16288;SDS011;26089;43.538;5.250;2023-05-07T01:26:58;2.97;;;2.60;;
16288;SDS011;26089;43.538;5.250;2023-05-07T01:29:26;3.20;;;2.90;;
16288;SDS011;26089;43.538;5.250;2023-05-07T01:31:53;2.90;;;2.63;;
16288;SDS011;26089;43.538;5.250;2023-05-07T01:34:23;6.17;;;3.10;;
16288;SDS011;26089;43.538;5.250;2023-05-07T01:36:53;2.93;;;2.73;;
16288;SDS011;26089;43.538;5.250;2023-05-07T01:39:23;3.57;;;2.77;;
16288;SDS011;26089;43.538;5.250;2023-05-07T01:41:52;4.80;;;2.60;;
16288;SDS011;26089;43.538;5.250;2023-05-07T01:44:21;3.07;;;2.77;;
16288;SDS011;26089;43.538;5.250;2023-05-07T01:46:48;3.10;;;2.90;;
16288;SDS011;26089;43.538;5.250;2023-05-07T01:49:16;4.33;;;2.90;;
16288;SDS011;26089;43.538;5.250;2023-05-07T01:51:43;2.80;;;2.60;;
16288;SDS011;26089;43.538;5.250;2023-05-07T01:54:10;3.43;;;2.90;;
16288;SDS011;26089;43.538;5.250;2023-05-07T01:56:37;3.43;;;2.50;;
16288;SDS011;26089;43.538;5.250;2023-05-07T01:59:05;4.50;;;2.90;;
16288;SDS011;26089;43.538;5.250;2023-05-07T02:01:32;3.83;;;2.67;;
16288;SDS011;26089;43.538;5.250;2023-05-07T02:03:59;3.00;;;2.80;;
16288;SDS011;26089;43.538;5.250;2023-05-07T02:06:26;4.20;;;2.97;;
16288;SDS011;26089;43.538;5.250;2023-05-07T02:08:53;3.93;;;3.07;;
16288;SDS011;26089;43.538;5.250;2023-05-07T02:11:20;2.63;;;2.43;;
16288;SDS011;26089;43.538;5.250;2023-05-07T02:13:47;4.33;;;2.83;;
16288;SDS011;26089;43.538;5.250;2023-05-07T02:16:16;2.87;;;2.40;;
16288;SDS011;26089;43.538;5.250;2023-05-07T02:18:44;2.63;;;2.20;;
16288;SDS011;26089;43.538;5.250;2023-05-07T02:21:11;3.00;;;2.70;;
16288;SDS011;26089;43.538;5.250;2023-05-07T02:23:38;3.40;;;2.53;;
16288;SDS011;26089;43.538;5.250;2023-05-07T02:26:05;2.97;;;2.33;;
16288;SDS011;26089;43.538;5.250;2023-05-07T02:31:00;2.27;;;2.07;;
16288;SDS011;26089;43.538;5.250;2023-05-07T02:33:30;3.07;;;2.20;;
16288;SDS011;26089;43.538;5.250;2023-05-07T02:35:59;4.00;;;2.43;;
16288;SDS011;26089;43.538;5.250;2023-05-07T02:38:32;2.70;;;2.07;;
16288;SDS011;26089;43.538;5.250;2023-05-07T02:40:58;4.37;;;2.40;;
16288;SDS011;26089;43.538;5.250;2023-05-07T02:43:25;2.23;;;2.13;;
16288;SDS011;26089;43.538;5.250;2023-05-07T02:45:59;2.20;;;2.10;;
16288;SDS011;26089;43.538;5.250;2023-05-07T02:48:27;3.50;;;2.20;;
16288;SDS011;26089;43.538;5.250;2023-05-07T02:50:56;2.57;;;1.93;;
16288;SDS011;26089;43.538;5.250;2023-05-07T02:53:23;2.07;;;1.97;;
16288;SDS011;26089;43.538;5.250;2023-05-07T02:55:51;2.40;;;2.13;;
16288;SDS011;26089;43.538;5.250;2023-05-07T02:58:19;2.00;;;1.90;;
16288;SDS011;26089;43.538;5.250;2023-05-07T03:00:46;3.00;;;2.10;;
16288;SDS011;26089;43.538;5.250;2023-05-07T03:03:13;2.10;;;1.90;;
16288;SDS011;26089;43.538;5.250;2023-05-07T03:05:41;2.23;;;2.13;;
16288;SDS011;26089;43.538;5.250;2023-05-07T03:08:08;2.20;;;2.00;;
16288;SDS011;26089;43.538;5.250;2023-05-07T03:10:36;2.40;;;2.30;;
16288;SDS011;26089;43.538;5.250;2023-05-07T03:13:04;2.63;;;2.43;;
16288;SDS011;26089;43.538;5.250;2023-05-07T03:15:31;2.43;;;2.30;;
16288;SDS011;26089;43.538;5.250;2023-05-07T03:17:58;2.93;;;2.20;;
16288;SDS011;26089;43.538;5.250;2023-05-07T03:20:25;2.63;;;2.23;;
16288;SDS011;26089;43.538;5.250;2023-05-07T03:22:53;2.93;;;2.50;;
16288;SDS011;26089;43.538;5.250;2023-05-07T03:25:20;2.70;;;2.50;;
16288;SDS011;26089;43.538;5.250;2023-05-07T03:27:48;4.03;;;2.90;;
16288;SDS011;26089;43.538;5.250;2023-05-07T03:30:15;3.70;;;2.60;;
16288;SDS011;26089;43.538;5.250;2023-05-07T03:32:42;3.87;;;3.00;;
16288;SDS011;26089;43.538;5.250;2023-05-07T03:35:09;3.63;;;2.37;;
16288;SDS011;26089;43.538;5.250;2023-05-07T03:37:37;3.63;;;2.70;;
16288;SDS011;26089;43.538;5.250;2023-05-07T03:40:06;3.10;;;2.90;;
16288;SDS011;26089;43.538;5.250;2023-05-07T03:42:35;2.60;;;2.40;;
16288;SDS011;26089;43.538;5.250;2023-05-07T03:45:02;3.63;;;2.40;;
16288;SDS011;26089;43.538;5.250;2023-05-07T03:47:30;2.97;;;2.70;;
16288;SDS011;26089;43.538;5.250;2023-05-07T03:49:57;2.70;;;2.50;;
16288;SDS011;26089;43.538;5.250;2023-05-07T03:52:24;2.50;;;2.30;;
16288;SDS011;26089;43.538;5.250;2023-05-07T03:54:51;2.80;;;2.30;;
16288;SDS011;26089;43.538;5.250;2023-05-07T03:57:20;2.60;;;2.40;;
16288;SDS011;26089;43.538;5.250;2023-05-07T03:59:47;4.53;;;2.30;;
16288;SDS011;26089;43.538;5.250;2023-05-07T04:02:15;3.37;;;2.90;;
16288;SDS011;26089;43.538;5.250;2023-05-07T04:04:42;2.47;;;2.30;;
16288;SDS011;26089;43.538;5.250;2023-05-07T04:07:09;3.23;;;2.30;;
16288;SDS011;26089;43.538;5.250;2023-05-07T04:09:36;2.50;;;2.30;;
16288;SDS011;26089;43.538;5.250;2023-05-07T04:12:03;3.47;;;2.83;;
16288;SDS011;26089;43.538;5.250;2023-05-07T04:14:32;3.27;;;2.97;;
16288;SDS011;26089;43.538;5.250;2023-05-07T04:16:59;3.07;;;2.70;;
16288;SDS011;26089;43.538;5.250;2023-05-07T04:19:26;3.00;;;2.70;;
16288;SDS011;26089;43.538;5.250;2023-05-07T04:21:53;4.33;;;3.23;;
16288;SDS011;26089;43.538;5.250;2023-05-07T04:24:20;3.53;;;3.23;;
16288;SDS011;26089;43.538;5.250;2023-05-07T04:26:47;3.30;;;2.80;;
16288;SDS011;26089;43.538;5.250;2023-05-07T04:29:14;4.03;;;2.80;;
16288;SDS011;26089;43.538;5.250;2023-05-07T04:31:42;4.90;;;2.93;;
16288;SDS011;26089;43.538;5.250;2023-05-07T04:34:10;2.87;;;2.67;;
16288;SDS011;26089;43.538;5.250;2023-05-07T04:36:37;3.40;;;3.10;;
16288;SDS011;26089;43.538;5.250;2023-05-07T04:39:05;4.43;;;2.77;;
16288;SDS011;26089;43.538;5.250;2023-05-07T04:41:32;2.80;;;2.60;;
16288;SDS011;26089;43.538;5.250;2023-05-07T04:44:01;7.50;;;2.87;;
16288;SDS011;26089;43.538;5.250;2023-05-07T04:46:29;3.70;;;3.40;;
16288;SDS011;26089;43.538;5.250;2023-05-07T04:48:57;3.93;;;3.00;;
16288;SDS011;26089;43.538;5.250;2023-05-07T04:51:24;2.87;;;2.67;;
16288;SDS011;26089;43.538;5.250;2023-05-07T04:53:51;3.83;;;2.67;;
16288;SDS011;26089;43.538;5.250;2023-05-07T04:56:18;3.10;;;2.90;;
16288;SDS011;26089;43.538;5.250;2023-05-07T04:58:45;3.47;;;3.17;;
16288;SDS011;26089;43.538;5.250;2023-05-07T05:01:12;2.90;;;2.67;;
16288;SDS011;26089;43.538;5.250;2023-05-07T05:03:39;3.33;;;3.00;;
16288;SDS011;26089;43.538;5.250;2023-05-07T05:06:07;3.20;;;2.80;;
16288;SDS011;26089;43.538;5.250;2023-05-07T05:08:34;3.47;;;2.60;;
16288;SDS011;26089;43.538;5.250;2023-05-07T05:11:01;3.10;;;2.70;;
16288;SDS011;26089;43.538;5.250;2023-05-07T05:13:28;3.80;;;2.70;;
16288;SDS011;26089;43.538;5.250;2023-05-07T05:15:55;4.50;;;3.17;;
16288;SDS011;26089;43.538;5.250;2023-05-07T05:18:22;2.83;;;2.63;;
16288;SDS011;26089;43.538;5.250;2023-05-07T05:20:49;4.70;;;2.93;;
16288;SDS011;26089;43.538;5.250;2023-05-07T05:23:19;3.30;;;3.03;;
16288;SDS011;26089;43.538;5.250;2023-05-07T05:25:46;4.70;;;2.90;;
16288;SDS011;26089;43.538;5.250;2023-05-07T05:28:13;3.30;;;3.00;;
16288;SDS011;26089;43.538;5.250;2023-05-07T05:30:40;2.70;;;2.50;;
16288;SDS011;26089;43.538;5.250;2023-05-07T05:33:07;3.20;;;3.00;;
16288;SDS011;26089;43.538;5.250;2023-05-07T05:35:34;6.17;;;3.37;;
16288;SDS011;26089;43.538;5.250;2023-05-07T05:38:02;3.20;;;2.83;;
16288;SDS011;26089;43.538;5.250;2023-05-07T05:40:30;3.43;;;3.13;;
16288;SDS011;26089;43.538;5.250;2023-05-07T05:42:58;3.80;;;3.40;;
16288;SDS011;26089;43.538;5.250;2023-05-07T05:45:25;3.27;;;2.97;;
16288;SDS011;26089;43.538;5.250;2023-05-07T05:47:52;3.70;;;2.83;;
16288;SDS011;26089;43.538;5.250;2023-05-07T05:50:19;3.17;;;2.87;;
16288;SDS011;26089;43.538;5.250;2023-05-07T05:52:46;3.60;;;3.30;;
16288;SDS011;26089;43.538;5.250;2023-05-07T05:55:14;3.17;;;2.97;;
16288;SDS011;26089;43.538;5.250;2023-05-07T05:57:42;3.07;;;2.87;;
16288;SDS011;26089;43.538;5.250;2023-05-07T06:00:09;4.17;;;3.80;;
16288;SDS011;26089;43.538;5.250;2023-05-07T06:02:37;14.77;;;11.17;;
16288;SDS011;26089;43.538;5.250;2023-05-07T06:05:04;19.10;;;15.00;;
16288;SDS011;26089;43.538;5.250;2023-05-07T06:07:32;14.80;;;10.90;;
16288;SDS011;26089;43.538;5.250;2023-05-07T06:09:59;6.67;;;5.50;;
16288;SDS011;26089;43.538;5.250;2023-05-07T06:12:26;5.10;;;4.20;;
16288;SDS011;26089;43.538;5.250;2023-05-07T06:14:55;4.77;;;4.30;;
16288;SDS011;26089;43.538;5.250;2023-05-07T06:17:22;4.10;;;3.70;;
16288;SDS011;26089;43.538;5.250;2023-05-07T06:19:49;3.70;;;3.40;;
16288;SDS011;26089;43.538;5.250;2023-05-07T06:22:16;4.57;;;3.47;;
16288;SDS011;26089;43.538;5.250;2023-05-07T06:24:43;5.17;;;3.50;;
16288;SDS011;26089;43.538;5.250;2023-05-07T06:27:10;3.80;;;3.20;;
16288;SDS011;26089;43.538;5.250;2023-05-07T06:29:37;3.50;;;3.20;;
16288;SDS011;26089;43.538;5.250;2023-05-07T06:32:08;3.40;;;3.10;;
16288;SDS011;26089;43.538;5.250;2023-05-07T06:34:35;3.27;;;3.07;;
16288;SDS011;26089;43.538;5.250;2023-05-07T06:37:03;4.13;;;3.33;;
16288;SDS011;26089;43.538;5.250;2023-05-07T06:39:30;3.60;;;3.30;;
16288;SDS011;26089;43.538;5.250;2023-05-07T06:41:57;3.50;;;3.20;;
16288;SDS011;26089;43.538;5.250;2023-05-07T06:44:25;3.63;;;3.33;;
16288;SDS011;26089;43.538;5.250;2023-05-07T06:46:52;3.33;;;3.03;;
16288;SDS011;26089;43.538;5.250;2023-05-07T06:49:21;3.97;;;3.13;;
16288;SDS011;26089;43.538;5.250;2023-05-07T06:51:48;3.60;;;3.30;;
16288;SDS011;26089;43.538;5.250;2023-05-07T06:54:15;4.00;;;3.47;;
16288;SDS011;26089;43.538;5.250;2023-05-07T06:56:43;5.77;;;3.77;;
16288;SDS011;26089;43.538;5.250;2023-05-07T06:59:09;4.77;;;3.97;;
16288;SDS011;26089;43.538;5.250;2023-05-07T07:01:36;5.10;;;4.47;;
16288;SDS011;26089;43.538;5.250;2023-05-07T07:04:03;4.10;;;3.63;;
16288;SDS011;26089;43.538;5.250;2023-05-07T07:06:32;6.10;;;4.77;;
16288;SDS011;26089;43.538;5.250;2023-05-07T07:08:59;6.17;;;4.40;;
16288;SDS011;26089;43.538;5.250;2023-05-07T07:11:26;4.97;;;3.70;;
16288;SDS011;26089;43.538;5.250;2023-05-07T07:13:53;4.50;;;3.80;;
16288;SDS011;26089;43.538;5.250;2023-05-07T07:16:20;3.90;;;3.33;;
16288;SDS011;26089;43.538;5.250;2023-05-07T07:18:47;5.93;;;3.80;;
16288;SDS011;26089;43.538;5.250;2023-05-07T07:21:14;5.73;;;3.83;;
16288;SDS011;26089;43.538;5.250;2023-05-07T07:23:42;4.90;;;3.73;;
16288;SDS011;26089;43.538;5.250;2023-05-07T07:26:09;3.73;;;3.43;;
16288;SDS011;26089;43.538;5.250;2023-05-07T07:28:41;3.83;;;3.47;;
16288;SDS011;26089;43.538;5.250;2023-05-07T07:31:09;3.43;;;3.13;;
16288;SDS011;26089;43.538;5.250;2023-05-07T07:33:36;5.00;;;3.47;;
16288;SDS011;26089;43.538;5.250;2023-05-07T07:36:03;3.60;;;3.23;;
16288;SDS011;26089;43.538;5.250;2023-05-07T07:38:31;4.60;;;3.90;;
16288;SDS011;26089;43.538;5.250;2023-05-07T07:40:59;3.30;;;3.00;;
16288;SDS011;26089;43.538;5.250;2023-05-07T07:43:26;3.90;;;3.27;;
16288;SDS011;26089;43.538;5.250;2023-05-07T07:45:53;3.97;;;3.30;;
16288;SDS011;26089;43.538;5.250;2023-05-07T07:48:20;4.47;;;4.00;;
16288;SDS011;26089;43.538;5.250;2023-05-07T07:50:48;3.47;;;3.10;;
16288;SDS011;26089;43.538;5.250;2023-05-07T07:53:16;4.33;;;3.20;;
16288;SDS011;26089;43.538;5.250;2023-05-07T07:55:43;3.50;;;3.20;;
16288;SDS011;26089;43.538;5.250;2023-05-07T07:58:11;3.80;;;3.50;;
16288;SDS011;26089;43.538;5.250;2023-05-07T08:00:38;3.70;;;3.40;;
16288;SDS011;26089;43.538;5.250;2023-05-07T08:03:05;3.57;;;2.97;;
16288;SDS011;26089;43.538;5.250;2023-05-07T08:05:35;3.47;;;3.27;;
16288;SDS011;26089;43.538;5.250;2023-05-07T08:08:03;4.93;;;3.27;;
16288;SDS011;26089;43.538;5.250;2023-05-07T08:10:30;3.13;;;2.73;;
16288;SDS011;26089;43.538;5.250;2023-05-07T08:13:00;3.43;;;2.73;;
16288;SDS011;26089;43.538;5.250;2023-05-07T08:15:29;2.63;;;2.53;;
16288;SDS011;26089;43.538;5.250;2023-05-07T08:17:57;2.63;;;2.30;;
16288;SDS011;26089;43.538;5.250;2023-05-07T08:20:25;4.23;;;2.67;;
16288;SDS011;26089;43.538;5.250;2023-05-07T08:22:52;2.10;;;1.93;;
16288;SDS011;26089;43.538;5.250;2023-05-07T08:25:19;3.73;;;2.07;;
16288;SDS011;26089;43.538;5.250;2023-05-07T08:27:46;2.17;;;2.07;;
16288;SDS011;26089;43.538;5.250;2023-05-07T08:30:13;2.00;;;1.90;;
16288;SDS011;26089;43.538;5.250;2023-05-07T08:32:42;3.43;;;2.20;;
16288;SDS011;26089;43.538;5.250;2023-05-07T08:35:09;1.77;;;1.67;;
16288;SDS011;26089;43.538;5.250;2023-05-07T08:37:36;1.97;;;1.80;;
16288;SDS011;26089;43.538;5.250;2023-05-07T08:40:03;1.93;;;1.83;;
16288;SDS011;26089;43.538;5.250;2023-05-07T08:42:31;2.28;;;2.08;;
16288;SDS011;26089;43.538;5.250;2023-05-07T08:45:03;2.30;;;2.10;;
16288;SDS011;26089;43.538;5.250;2023-05-07T08:47:38;2.03;;;1.93;;
16288;SDS011;26089;43.538;5.250;2023-05-07T08:50:10;2.20;;;2.00;;
16288;SDS011;26089;43.538;5.250;2023-05-07T08:52:37;2.17;;;1.98;;
16288;SDS011;26089;43.538;5.250;2023-05-07T08:55:06;3.20;;;2.05;;
16288;SDS011;26089;43.538;5.250;2023-05-07T08:57:34;2.20;;;2.00;;
16288;SDS011;26089;43.538;5.250;2023-05-07T09:00:01;4.25;;;2.33;;
16288;SDS011;26089;43.538;5.250;2023-05-07T09:02:28;2.65;;;2.45;;
16288;SDS011;26089;43.538;5.250;2023-05-07T09:04:57;2.83;;;2.10;;
16288;SDS011;26089;43.538;5.250;2023-05-07T09:07:24;2.58;;;1.90;;
16288;SDS011;26089;43.538;5.250;2023-05-07T09:09:52;2.97;;;2.03;;
16288;SDS011;26089;43.538;5.250;2023-05-07T09:12:20;2.20;;;2.10;;
16288;SDS011;26089;43.538;5.250;2023-05-07T09:14:47;2.35;;;2.15;;
16288;SDS011;26089;43.538;5.250;2023-05-07T09:17:15;2.42;;;2.22;;
16288;SDS011;26089;43.538;5.250;2023-05-07T09:19:43;2.95;;;2.28;;
16288;SDS011;26089;43.538;5.250;2023-05-07T09:22:12;2.13;;;1.83;;
16288;SDS011;26089;43.538;5.250;2023-05-07T09:24:39;2.10;;;2.00;;
16288;SDS011;26089;43.538;5.250;2023-05-07T09:27:06;2.63;;;2.35;;
16288;SDS011;26089;43.538;5.250;2023-05-07T09:29:35;2.83;;;2.15;;
16288;SDS011;26089;43.538;5.250;2023-05-07T09:32:03;5.57;;;4.78;;
16288;SDS011;26089;43.538;5.250;2023-05-07T09:34:31;4.95;;;4.40;;
16288;SDS011;26089;43.538;5.250;2023-05-07T09:36:58;4.57;;;4.15;;
16288;SDS011;26089;43.538;5.250;2023-05-07T09:39:27;4.47;;;4.13;;
16288;SDS011;26089;43.538;5.250;2023-05-07T09:42:05;4.80;;;3.70;;
16288;SDS011;26089;43.538;5.250;2023-05-07T09:44:33;4.15;;;3.75;;
16288;SDS011;26089;43.538;5.250;2023-05-07T09:47:00;4.72;;;3.45;;
16288;SDS011;26089;43.538;5.250;2023-05-07T09:49:30;5.47;;;4.30;;
16288;SDS011;26089;43.538;5.250;2023-05-07T09:52:01;5.03;;;3.97;;
16288;SDS011;26089;43.538;5.250;2023-05-07T09:54:32;6.67;;;4.17;;
16288;SDS011;26089;43.538;5.250;2023-05-07T09:57:00;3.83;;;3.53;;
16288;SDS011;26089;43.538;5.250;2023-05-07T09:59:28;7.37;;;4.17;;
16288;SDS011;26089;43.538;5.250;2023-05-07T10:01:57;3.95;;;3.55;;
16288;SDS011;26089;43.538;5.250;2023-05-07T10:04:25;3.60;;;3.30;;
16288;SDS011;26089;43.538;5.250;2023-05-07T10:06:53;5.68;;;3.35;;
16288;SDS011;26089;43.538;5.250;2023-05-07T10:09:20;5.55;;;3.25;;
16288;SDS011;26089;43.538;5.250;2023-05-07T10:11:49;4.13;;;3.13;;
16288;SDS011;26089;43.538;5.250;2023-05-07T10:14:17;3.10;;;2.90;;
16288;SDS011;26089;43.538;5.250;2023-05-07T10:16:45;4.85;;;2.92;;
16288;SDS011;26089;43.538;5.250;2023-05-07T10:19:14;4.15;;;2.92;;
16288;SDS011;26089;43.538;5.250;2023-05-07T10:21:44;4.20;;;2.78;;
16288;SDS011;26089;43.538;5.250;2023-05-07T10:24:16;3.75;;;2.90;;
16288;SDS011;26089;43.538;5.250;2023-05-07T10:26:48;2.83;;;2.67;;
16288;SDS011;26089;43.538;5.250;2023-05-07T10:29:18;4.13;;;2.90;;
16288;SDS011;26089;43.538;5.250;2023-05-07T10:32:01;3.00;;;2.70;;
16288;SDS011;26089;43.538;5.250;2023-05-07T10:34:47;2.97;;;2.78;;
16288;SDS011;26089;43.538;5.250;2023-05-07T10:37:17;3.05;;;2.75;;
16288;SDS011;26089;43.538;5.250;2023-05-07T10:39:44;3.08;;;2.80;;
16288;SDS011;26089;43.538;5.250;2023-05-07T10:42:13;3.05;;;2.60;;
16288;SDS011;26089;43.538;5.250;2023-05-07T10:44:41;6.10;;;2.70;;
16288;SDS011;26089;43.538;5.250;2023-05-07T10:47:08;3.85;;;2.45;;
16288;SDS011;26089;43.538;5.250;2023-05-07T10:49:36;3.35;;;2.85;;
16288;SDS011;26089;43.538;5.250;2023-05-07T10:52:24;3.25;;;2.80;;
16288;SDS011;26089;43.538;5.250;2023-05-07T10:57:52;3.00;;;2.80;;
16288;SDS011;26089;43.538;5.250;2023-05-07T11:03:10;3.03;;;2.70;;
16288;SDS011;26089;43.538;5.250;2023-05-07T11:05:37;2.88;;;2.50;;
16288;SDS011;26089;43.538;5.250;2023-05-07T11:08:05;3.33;;;3.03;;
16288;SDS011;26089;43.538;5.250;2023-05-07T11:10:47;3.33;;;3.03;;
16288;SDS011;26089;43.538;5.250;2023-05-07T11:13:17;3.00;;;2.70;;
16288;SDS011;26089;43.538;5.250;2023-05-07T11:15:45;3.65;;;3.13;;
16288;SDS011;26089;43.538;5.250;2023-05-07T11:18:13;3.20;;;2.90;;
16288;SDS011;26089;43.538;5.250;2023-05-07T11:20:45;4.18;;;2.75;;
16288;SDS011;26089;43.538;5.250;2023-05-07T11:26:26;3.28;;;2.97;;
16288;SDS011;26089;43.538;5.250;2023-05-07T11:28:56;4.22;;;2.90;;
16288;SDS011;26089;43.538;5.250;2023-05-07T11:31:25;2.90;;;2.60;;
16288;SDS011;26089;43.538;5.250;2023-05-07T11:33:53;3.33;;;3.03;;
16288;SDS011;26089;43.538;5.250;2023-05-07T11:36:22;4.13;;;3.00;;
16288;SDS011;26089;43.538;5.250;2023-05-07T11:38:49;3.38;;;2.95;;
16288;SDS011;26089;43.538;5.250;2023-05-07T11:41:16;3.10;;;2.90;;
16288;SDS011;26089;43.538;5.250;2023-05-07T11:43:56;3.60;;;2.88;;
16288;SDS011;26089;43.538;5.250;2023-05-07T11:46:24;3.63;;;3.33;;
16288;SDS011;26089;43.538;5.250;2023-05-07T11:48:52;3.30;;;3.00;;
16288;SDS011;26089;43.538;5.250;2023-05-07T11:51:19;4.32;;;3.15;;
16288;SDS011;26089;43.538;5.250;2023-05-07T11:53:47;3.90;;;3.42;;
16288;SDS011;26089;43.538;5.250;2023-05-07T11:56:16;3.50;;;3.30;;
16288;SDS011;26089;43.538;5.250;2023-05-07T11:58:44;3.20;;;3.00;;
16288;SDS011;26089;43.538;5.250;2023-05-07T12:01:14;3.45;;;2.85;;
16288;SDS011;26089;43.538;5.250;2023-05-07T12:03:44;2.80;;;2.60;;
16288;SDS011;26089;43.538;5.250;2023-05-07T12:06:12;3.42;;;3.05;;
16288;SDS011;26089;43.538;5.250;2023-05-07T12:08:40;4.57;;;2.80;;
16288;SDS011;26089;43.538;5.250;2023-05-07T12:11:08;3.70;;;3.15;;
16288;SDS011;26089;43.538;5.250;2023-05-07T12:13:36;4.50;;;3.00;;
16288;SDS011;26089;43.538;5.250;2023-05-07T12:16:05;3.03;;;2.70;;
16288;SDS011;26089;43.538;5.250;2023-05-07T12:18:35;5.15;;;3.38;;
16288;SDS011;26089;43.538;5.250;2023-05-07T12:21:03;4.05;;;3.25;;
16288;SDS011;26089;43.538;5.250;2023-05-07T12:23:32;4.03;;;3.20;;
16288;SDS011;26089;43.538;5.250;2023-05-07T12:26:00;4.57;;;3.35;;
16288;SDS011;26089;43.538;5.250;2023-05-07T12:28:27;3.53;;;2.83;;
16288;SDS011;26089;43.538;5.250;2023-05-07T12:30:55;4.53;;;4.13;;
16288;SDS011;26089;43.538;5.250;2023-05-07T12:33:23;4.35;;;3.20;;
16288;SDS011;26089;43.538;5.250;2023-05-07T12:35:53;3.45;;;3.22;;
16288;SDS011;26089;43.538;5.250;2023-05-07T12:38:21;3.75;;;3.42;;
16288;SDS011;26089;43.538;5.250;2023-05-07T12:40:48;5.68;;;3.20;;
16288;SDS011;26089;43.538;5.250;2023-05-07T12:43:17;5.75;;;4.35;;
16288;SDS011;26089;43.538;5.250;2023-05-07T12:45:45;4.13;;;3.92;;
16288;SDS011;26089;43.538;5.250;2023-05-07T12:48:14;4.03;;;3.63;;
16288;SDS011;26089;43.538;5.250;2023-05-07T12:50:41;4.25;;;3.90;;
16288;SDS011;26089;43.538;5.250;2023-05-07T12:53:11;2.95;;;2.40;;
16288;SDS011;26089;43.538;5.250;2023-05-07T12:55:40;3.30;;;2.53;;
16288;SDS011;26089;43.538;5.250;2023-05-07T12:58:14;2.58;;;2.47;;
16288;SDS011;26089;43.538;5.250;2023-05-07T13:00:42;3.15;;;2.45;;
16288;SDS011;26089;43.538;5.250;2023-05-07T13:03:10;2.92;;;2.72;;
16288;SDS011;26089;43.538;5.250;2023-05-07T13:05:37;2.90;;;2.55;;
16288;SDS011;26089;43.538;5.250;2023-05-07T13:08:05;2.10;;;2.00;;
16288;SDS011;26089;43.538;5.250;2023-05-07T13:10:36;5.30;;;2.10;;
16288;SDS011;26089;43.538;5.250;2023-05-07T13:13:02;1.88;;;1.77;;
16288;SDS011;26089;43.538;5.250;2023-05-07T13:15:29;1.98;;;1.88;;
16288;SDS011;26089;43.538;5.250;2023-05-07T13:17:56;2.13;;;1.90;;
16288;SDS011;26089;43.538;5.250;2023-05-07T13:20:23;2.95;;;2.17;;
16288;SDS011;26089;43.538;5.250;2023-05-07T13:22:50;2.75;;;2.38;;
16288;SDS011;26089;43.538;5.250;2023-05-07T13:25:17;2.10;;;2.00;;
16288;SDS011;26089;43.538;5.250;2023-05-07T13:27:46;2.30;;;2.20;;
16288;SDS011;26089;43.538;5.250;2023-05-07T13:30:13;2.35;;;2.25;;
16288;SDS011;26089;43.538;5.250;2023-05-07T13:32:40;2.40;;;2.20;;
16288;SDS011;26089;43.538;5.250;2023-05-07T13:35:07;2.53;;;2.15;;
16288;SDS011;26089;43.538;5.250;2023-05-07T13:37:34;3.40;;;2.20;;
16288;SDS011;26089;43.538;5.250;2023-05-07T13:40:01;2.50;;;2.35;;
16288;SDS011;26089;43.538;5.250;2023-05-07T13:42:29;2.22;;;2.03;;
16288;SDS011;26089;43.538;5.250;2023-05-07T13:44:58;2.40;;;2.08;;
16288;SDS011;26089;43.538;5.250;2023-05-07T13:47:25;3.00;;;2.22;;
16288;SDS011;26089;43.538;5.250;2023-05-07T13:49:52;2.53;;;2.33;;
16288;SDS011;26089;43.538;5.250;2023-05-07T13:52:19;2.45;;;2.30;;
16288;SDS011;26089;43.538;5.250;2023-05-07T13:54:46;2.28;;;2.17;;
16288;SDS011;26089;43.538;5.250;2023-05-07T13:57:13;1.92;;;1.83;;
16288;SDS011;26089;43.538;5.250;2023-05-07T13:59:40;2.42;;;1.80;;
16288;SDS011;26089;43.538;5.250;2023-05-07T14:02:09;1.60;;;1.48;;
16288;SDS011;26089;43.538;5.250;2023-05-07T14:04:37;1.70;;;1.55;;
16288;SDS011;26089;43.538;5.250;2023-05-07T14:07:04;2.47;;;1.70;;
16288;SDS011;26089;43.538;5.250;2023-05-07T14:09:31;1.88;;;1.77;;
16288;SDS011;26089;43.538;5.250;2023-05-07T14:11:58;1.85;;;1.75;;
16288;SDS011;26089;43.538;5.250;2023-05-07T14:14:26;1.70;;;1.50;;
16288;SDS011;26089;43.538;5.250;2023-05-07T14:16:53;2.88;;;1.52;;
16288;SDS011;26089;43.538;5.250;2023-05-07T14:19:21;1.85;;;1.25;;
16288;SDS011;26089;43.538;5.250;2023-05-07T14:21:48;1.38;;;1.30;;
16288;SDS011;26089;43.538;5.250;2023-05-07T14:24:15;1.40;;;1.40;;
16288;SDS011;26089;43.538;5.250;2023-05-07T14:26:42;2.38;;;2.15;;
16288;SDS011;26089;43.538;5.250;2023-05-07T14:29:10;1.30;;;1.30;;
16288;SDS011;26089;43.538;5.250;2023-05-07T14:31:37;4.93;;;2.05;;
16288;SDS011;26089;43.538;5.250;2023-05-07T14:34:04;3.05;;;1.60;;
16288;SDS011;26089;43.538;5.250;2023-05-07T14:36:33;2.70;;;2.50;;
16288;SDS011;26089;43.538;5.250;2023-05-07T14:39:00;2.53;;;2.30;;
16288;SDS011;26089;43.538;5.250;2023-05-07T14:41:27;2.30;;;2.10;;
16288;SDS011;26089;43.538;5.250;2023-05-07T14:43:54;2.70;;;2.50;;
16288;SDS011;26089;43.538;5.250;2023-05-07T14:46:21;2.05;;;1.95;;
16288;SDS011;26089;43.538;5.250;2023-05-07T14:48:49;2.05;;;1.95;;
16288;SDS011;26089;43.538;5.250;2023-05-07T14:51:16;2.25;;;2.03;;
16288;SDS011;26089;43.538;5.250;2023-05-07T14:53:44;2.05;;;1.90;;
16288;SDS011;26089;43.538;5.250;2023-05-07T14:56:11;2.20;;;2.00;;
16288;SDS011;26089;43.538;5.250;2023-05-07T14:58:38;4.30;;;2.45;;
16288;SDS011;26089;43.538;5.250;2023-05-07T15:01:05;2.60;;;2.40;;
16288;SDS011;26089;43.538;5.250;2023-05-07T15:03:32;2.28;;;2.17;;